Lindsay, Canada
Current Conditions -  °F | °C
As of 7:00 PM on Sunday 23 Nov 2014 (Local Time) from CYPQ Reporting Station
Overcast Overcast  
Wind Chill: 43°   Ceiling: 11000
Heat Index: 43°   Visibility: 9mi
Dew Point: 41°   Wind: 2mph
Humidity: 93%   Direction: NA
Pressure: 29.84"   Gusts: NA
Location:  44.35°N, 78.74°W
Report Text: CYPQ 240000Z AUTO VRB02KT 9SM OVC110 06/05 A2984 RMK SLP110
Loading
Personal Weather Stations






























Interactive Weather Map New forecast layout! Learn more

10-Day Weather Forecast

Advertisements
Track Severe Weather on mobile